Ambler, Alaska
Current Conditions -  °F | °C
As of 10:56 PM on Monday 20 Oct 2014 (Local Time) from PAFM Reporting Station
Overcast Overcast  
Wind Chill: 21°   Ceiling: 6000
Heat Index: 28°   Visibility: 10mi
Dew Point: 16°   Wind: 7mph
Humidity: 59%   Direction: 40°NE
Pressure: 29.44"   Gusts: NA
Location:  67.09°N, 157.85°W
Report Text: PAFM 210656Z AUTO 04006KT 010V070 10SM OVC060 M02/M09 A2944 RMK AO1
Loading
Personal Weather Stations






























Interactive Weather Map
Tropical Storm Tracking
New forecast layout! Learn more

10-Day Weather Forecast

Advertisements
Track Severe Weather on mobile